createdAt,value
2017-05-06T04:59:14.334Z,66.32
2017-05-06T05:01:41.133Z,69.94
2017-05-06T05:04:07.914Z,77.78
2017-05-06T05:06:34.734Z,66.58
2017-05-06T05:09:01.491Z,57.78
2017-05-06T05:11:28.274Z,52.46
2017-05-06T05:13:55.109Z,60.42
2017-05-06T05:16:21.951Z,53.66
2017-05-06T05:18:48.757Z,41.04
2017-05-06T05:21:15.609Z,48.74
2017-05-06T05:23:42.402Z,49.52
2017-05-06T05:26:09.171Z,45.36
2017-05-06T05:28:36.018Z,44.80
2017-05-06T05:31:02.816Z,45.40
2017-05-06T05:33:29.619Z,45.24
2017-05-06T05:35:56.438Z,49.20
2017-05-06T05:38:23.232Z,41.18
2017-05-06T05:40:50.046Z,42.06
2017-05-06T05:43:16.934Z,36.28
2017-05-06T05:45:43.763Z,38.10
2017-05-06T05:48:10.570Z,40.66
2017-05-06T05:50:37.419Z,34.76
2017-05-06T05:53:04.216Z,35.72
2017-05-06T05:55:31.030Z,27.90
2017-05-06T05:57:57.872Z,26.62
2017-05-06T06:00:24.674Z,25.84
2017-05-06T06:02:51.508Z,27.54
2017-05-06T06:05:18.332Z,31.36
2017-05-06T06:07:45.160Z,31.48
2017-05-06T06:10:11.972Z,28.82
2017-05-06T06:12:38.788Z,27.44
2017-05-06T06:15:05.551Z,24.36
2017-05-06T06:17:32.405Z,22.14
2017-05-06T06:19:59.245Z,21.18
2017-05-06T06:22:26.056Z,24.02
2017-05-06T06:24:53.738Z,28.30
2017-05-06T06:27:20.583Z,31.66
2017-05-06T06:29:47.420Z,32.10
2017-05-06T06:32:14.339Z,26.40
2017-05-06T06:34:41.177Z,27.72
2017-05-06T06:37:07.983Z,35.44
2017-05-06T06:39:35.874Z,33.34
2017-05-06T06:42:02.713Z,41.98
2017-05-06T06:44:29.570Z,25.56
2017-05-06T06:46:56.391Z,33.40
2017-05-06T06:49:23.249Z,31.42
2017-05-06T06:51:50.064Z,33.28
2017-05-06T06:54:16.859Z,27.80
2017-05-06T06:56:43.726Z,28.08
2017-05-06T06:59:10.559Z,33.26
2017-05-06T07:01:37.369Z,30.08
2017-05-06T07:04:04.175Z,26.30
2017-05-06T07:06:31.010Z,29.94
2017-05-06T07:08:57.864Z,24.96
2017-05-06T07:11:24.667Z,29.22
2017-05-06T07:13:51.669Z,30.30
2017-05-06T07:16:18.550Z,20.58
2017-05-06T07:18:45.457Z,24.90
2017-05-06T07:21:12.350Z,21.94
2017-05-06T07:23:39.135Z,19.72
2017-05-06T07:26:05.944Z,23.98
2017-05-06T07:28:32.806Z,22.14
2017-05-06T07:30:59.662Z,21.60
2017-05-06T07:33:26.477Z,14.92
2017-05-06T07:35:53.284Z,22.24
2017-05-06T07:38:20.144Z,21.08
2017-05-06T07:40:46.983Z,24.82
2017-05-06T07:43:14.714Z,24.74
2017-05-06T07:45:43.576Z,30.04
2017-05-06T07:48:11.570Z,21.50
2017-05-06T07:50:39.250Z,25.12
2017-05-06T07:53:06.266Z,42.70
2017-05-06T07:55:34.245Z,30.62
2017-05-06T07:58:01.840Z,23.60
2017-05-06T08:00:28.746Z,24.76
2017-05-06T08:02:55.607Z,19.02
2017-05-06T08:05:22.462Z,23.64
2017-05-06T08:07:49.242Z,23.58
2017-05-06T08:10:16.723Z,17.62
2017-05-06T08:12:43.566Z,18.20
2017-05-06T08:15:10.414Z,20.20
2017-05-06T08:17:37.247Z,17.64
2017-05-06T08:20:04.274Z,19.58
2017-05-06T08:22:31.141Z,19.24
2017-05-06T08:24:58.055Z,20.28
2017-05-06T08:27:24.865Z,18.76
2017-05-06T08:29:51.891Z,20.68
2017-05-06T08:32:18.752Z,16.22
2017-05-06T08:34:45.663Z,19.36
2017-05-06T08:37:12.515Z,16.96
2017-05-06T08:39:39.379Z,15.32
2017-05-06T08:42:06.400Z,19.72
2017-05-06T08:44:33.195Z,20.20
2017-05-06T08:47:00.087Z,20.84
2017-05-06T08:49:26.900Z,21.14
2017-05-06T08:51:53.719Z,23.38
2017-05-06T08:54:20.646Z,18.74
2017-05-06T08:56:47.456Z,19.48
2017-05-06T08:59:14.400Z,17.94
2017-05-06T09:01:41.392Z,16.46
2017-05-06T09:04:08.275Z,16.48
2017-05-06T09:06:35.304Z,15.52
2017-05-06T09:09:02.282Z,19.72
2017-05-06T09:11:29.518Z,12.34
2017-05-06T09:13:56.324Z,19.76
2017-05-06T09:16:23.153Z,15.94
2017-05-06T09:18:49.993Z,14.26
2017-05-06T09:21:26.787Z,17.68
2017-05-06T09:23:53.607Z,15.18
2017-05-06T09:26:20.659Z,20.42
2017-05-06T09:28:47.526Z,15.22
2017-05-06T09:31:14.442Z,14.28
2017-05-06T09:33:41.330Z,14.22
2017-05-06T09:36:08.304Z,13.04
2017-05-06T09:38:35.125Z,17.38
2017-05-06T09:41:01.968Z,16.50
2017-05-06T09:43:28.881Z,15.82
2017-05-06T09:45:55.670Z,12.26
2017-05-06T09:48:22.456Z,13.34
2017-05-06T09:50:49.348Z,16.60
2017-05-06T09:53:16.192Z,10.20
2017-05-06T09:55:43.092Z,14.40
2017-05-06T09:58:09.931Z,12.20
2017-05-06T10:00:37.029Z,9.18
2017-05-06T10:03:03.869Z,18.54
2017-05-06T10:05:30.722Z,13.20
2017-05-06T10:07:57.548Z,11.42
2017-05-06T10:10:24.352Z,20.52
2017-05-06T10:12:51.193Z,13.54
2017-05-06T10:15:18.037Z,12.04
2017-05-06T10:17:44.823Z,13.16
2017-05-06T10:20:11.669Z,11.40
2017-05-06T10:22:38.552Z,16.10
2017-05-06T10:25:05.411Z,10.00
2017-05-06T10:27:32.654Z,10.86
2017-05-06T10:29:59.500Z,10.36
2017-05-06T10:32:26.299Z,13.44
2017-05-06T10:34:53.123Z,10.68
2017-05-06T10:37:20.012Z,12.04
2017-05-06T10:39:46.856Z,9.70
2017-05-06T10:42:14.017Z,10.92
2017-05-06T10:44:40.828Z,11.20
2017-05-06T10:47:07.630Z,10.84
2017-05-06T10:49:34.478Z,12.22
2017-05-06T10:52:01.318Z,9.56
2017-05-06T10:54:28.142Z,10.06
2017-05-06T10:56:55.048Z,8.78
2017-05-06T10:59:21.879Z,11.40
2017-05-06T11:01:48.729Z,11.80
2017-05-06T11:04:15.636Z,14.56
2017-05-06T11:06:45.171Z,11.10
2017-05-06T11:09:12.091Z,11.08
2017-05-06T11:11:38.969Z,15.90
2017-05-06T11:14:06.585Z,14.92
2017-05-06T11:16:33.429Z,11.94
2017-05-06T11:19:00.400Z,11.48
2017-05-06T11:21:27.351Z,12.58
2017-05-06T11:23:54.183Z,11.94
2017-05-06T11:26:21.031Z,11.06
2017-05-06T11:28:47.912Z,10.34
2017-05-06T11:31:14.805Z,10.04
2017-05-06T11:33:41.699Z,11.52
2017-05-06T11:36:08.532Z,9.72
2017-05-06T11:38:35.333Z,8.50
2017-05-06T11:41:02.328Z,11.30
2017-05-06T11:43:29.127Z,11.44
2017-05-06T11:45:55.954Z,10.04
2017-05-06T11:48:22.999Z,14.24
2017-05-06T11:50:49.798Z,9.44
2017-05-06T11:53:17.371Z,8.28
2017-05-06T11:55:44.313Z,9.10
2017-05-06T11:58:11.216Z,11.08
2017-05-06T12:00:38.365Z,8.72
2017-05-06T12:03:05.275Z,8.10
2017-05-06T12:05:32.607Z,9.06
2017-05-06T12:07:59.453Z,9.14
2017-05-06T12:10:26.333Z,9.64
2017-05-06T12:12:53.548Z,8.28
2017-05-06T12:15:20.690Z,7.68
2017-05-06T12:17:48.690Z,12.36
2017-05-06T12:20:15.527Z,9.38
2017-05-06T12:22:42.407Z,9.78
2017-05-06T12:25:09.254Z,7.34
2017-05-06T12:27:36.074Z,8.02
2017-05-06T12:30:03.108Z,7.28
2017-05-06T12:32:30.390Z,7.90
2017-05-06T12:34:57.638Z,9.38
2017-05-06T12:37:24.461Z,11.48
2017-05-06T12:39:51.387Z,8.54
2017-05-06T12:42:18.224Z,7.46
2017-05-06T12:44:45.077Z,9.84
2017-05-06T12:47:11.949Z,7.50
2017-05-06T12:49:39.556Z,9.90
2017-05-06T12:52:06.414Z,7.04
2017-05-06T12:54:33.242Z,8.58
2017-05-06T12:57:00.138Z,6.68
2017-05-06T12:59:26.991Z,9.44
2017-05-06T13:01:53.920Z,8.46
2017-05-06T13:04:20.964Z,6.74
2017-05-06T13:06:49.886Z,11.40
2017-05-06T13:09:18.858Z,9.88
2017-05-06T13:11:47.244Z,10.38
2017-05-06T13:14:15.130Z,8.04
2017-05-06T13:16:42.936Z,8.44
2017-05-06T13:19:10.070Z,7.98
2017-05-06T13:21:37.394Z,7.58
2017-05-06T13:24:16.717Z,8.90
2017-05-06T13:26:45.187Z,10.20
2017-05-06T13:29:13.567Z,9.18
2017-05-06T13:31:46.385Z,8.90
2017-05-06T13:34:13.562Z,9.04
2017-05-06T13:36:40.564Z,11.14
2017-05-06T13:39:07.624Z,11.80
2017-05-06T13:41:34.501Z,9.22
2017-05-06T13:44:01.633Z,15.74
2017-05-06T13:46:28.497Z,17.20
2017-05-06T13:48:55.371Z,11.14
2017-05-06T13:51:22.440Z,15.22
2017-05-06T13:53:49.536Z,11.72
2017-05-06T13:56:16.805Z,14.28
2017-05-06T13:58:43.788Z,13.40
2017-05-06T14:01:10.881Z,14.08
2017-05-06T14:03:37.825Z,14.64
2017-05-06T14:06:04.714Z,13.24
2017-05-06T14:08:31.889Z,11.28
2017-05-06T14:10:59.703Z,14.62
2017-05-06T14:13:27.572Z,15.26
2017-05-06T14:15:54.605Z,12.52
2017-05-06T14:18:21.686Z,14.52
2017-05-06T14:20:48.577Z,16.94
2017-05-06T14:23:15.410Z,12.74
2017-05-06T14:25:42.361Z,13.60
2017-05-06T14:28:09.253Z,15.34
2017-05-06T14:30:36.271Z,12.64
2017-05-06T14:33:03.116Z,12.94
2017-05-06T14:35:30.022Z,12.62
2017-05-06T14:37:56.872Z,15.00
2017-05-06T14:40:23.842Z,11.26
2017-05-06T14:42:50.660Z,13.64
2017-05-06T14:45:17.686Z,15.48
2017-05-06T14:47:44.740Z,13.24
2017-05-06T14:50:11.559Z,10.92
2017-05-06T14:52:38.556Z,12.22
2017-05-06T14:55:05.754Z,10.84
2017-05-06T14:57:32.747Z,14.96
2017-05-06T14:59:59.665Z,12.32
2017-05-06T15:02:26.520Z,11.12
2017-05-06T15:04:53.607Z,15.26
2017-05-06T15:07:20.497Z,14.88
2017-05-06T15:09:47.372Z,15.36
2017-05-06T15:12:18.451Z,12.60
2017-05-06T15:14:45.446Z,13.94
2017-05-06T15:17:14.566Z,13.00
2017-05-06T15:19:42.377Z,13.26
2017-05-06T15:22:11.215Z,12.20
2017-05-06T15:24:38.972Z,11.50
2017-05-06T15:29:45.180Z,11.14
2017-05-06T15:32:12.871Z,9.02
2017-05-06T15:34:41.172Z,13.40
2017-05-06T15:37:09.495Z,14.10
2017-05-06T15:39:37.691Z,16.78
2017-05-06T15:42:06.041Z,19.50
2017-05-06T15:44:34.466Z,21.38
2017-05-06T15:47:02.495Z,19.92
2017-05-06T15:49:31.365Z,17.24
2017-05-06T15:51:58.328Z,15.34
2017-05-06T15:54:25.364Z,14.94
2017-05-06T15:56:52.360Z,13.84
2017-05-06T15:59:20.034Z,10.64
2017-05-06T16:01:47.166Z,13.68
2017-05-06T16:04:14.273Z,18.12
2017-05-06T16:06:41.405Z,17.94
2017-05-06T16:09:08.378Z,13.94
2017-05-06T16:11:35.809Z,16.00
2017-05-06T16:14:02.711Z,13.78
2017-05-06T16:16:29.694Z,14.98
2017-05-06T16:18:56.762Z,14.14
2017-05-06T16:21:23.898Z,18.40
2017-05-06T16:23:50.815Z,12.16
2017-05-06T16:26:17.888Z,12.42
2017-05-06T16:28:45.102Z,16.04
2017-05-06T16:31:11.937Z,7.84
2017-05-06T16:33:38.855Z,7.10
2017-05-06T16:36:05.847Z,6.14
2017-05-06T16:38:32.695Z,8.64
2017-05-06T16:40:59.712Z,10.88
2017-05-06T16:43:26.621Z,10.02
2017-05-06T16:45:53.577Z,9.02
2017-05-06T16:48:20.411Z,9.06
2017-05-06T16:50:47.283Z,18.30
2017-05-06T16:53:14.403Z,19.40
2017-05-06T16:55:41.255Z,17.88
2017-05-06T16:58:08.358Z,22.94
2017-05-06T17:00:35.344Z,22.18
2017-05-06T17:03:02.253Z,17.18
2017-05-06T17:05:29.117Z,17.20
2017-05-06T17:07:56.234Z,13.46
2017-05-06T17:10:23.176Z,11.28
2017-05-06T17:12:50.015Z,9.12
2017-05-06T17:15:16.906Z,8.50
2017-05-06T17:17:43.776Z,11.98
2017-05-06T17:20:10.628Z,12.34
2017-05-06T17:22:37.471Z,10.68
2017-05-06T17:25:04.374Z,10.26
2017-05-06T17:27:31.256Z,11.76
2017-05-06T17:29:58.199Z,8.92
2017-05-06T17:32:25.090Z,7.64
2017-05-06T17:34:51.942Z,11.64
2017-05-06T17:37:18.792Z,9.80
2017-05-06T17:39:45.697Z,11.24
2017-05-06T17:42:12.565Z,6.78
2017-05-06T17:44:39.656Z,7.10
2017-05-06T17:47:06.661Z,7.50
2017-05-06T17:49:33.493Z,6.52
2017-05-06T17:52:00.413Z,8.86
2017-05-06T17:54:27.251Z,6.86
2017-05-06T17:56:54.186Z,8.30
2017-05-06T17:59:21.079Z,6.80
2017-05-06T18:01:47.967Z,9.60
2017-05-06T18:04:14.796Z,6.60
2017-05-06T18:06:41.750Z,8.94
2017-05-06T18:09:08.821Z,8.38
2017-05-06T18:11:35.832Z,11.58
2017-05-06T18:14:02.805Z,8.64
2017-05-06T18:16:29.641Z,7.38
2017-05-06T18:18:56.474Z,8.32
2017-05-06T18:21:23.292Z,7.76
2017-05-06T18:23:50.158Z,10.32
2017-05-06T18:26:16.961Z,7.38
2017-05-06T18:28:43.830Z,8.08
2017-05-06T18:31:10.649Z,8.22
2017-05-06T18:33:37.490Z,7.92
2017-05-06T18:36:04.353Z,7.40
2017-05-06T18:38:31.163Z,8.34
2017-05-06T18:40:57.978Z,7.44
2017-05-06T18:43:25.336Z,9.56
2017-05-06T18:45:52.389Z,6.72
2017-05-06T18:48:19.293Z,11.70
2017-05-06T18:50:46.371Z,7.96
2017-05-06T18:53:13.531Z,6.58
2017-05-06T18:55:40.520Z,9.16
2017-05-06T18:58:07.358Z,7.24
2017-05-06T19:00:34.195Z,11.16
2017-05-06T19:03:01.058Z,12.18
2017-05-06T19:05:27.847Z,14.52
2017-05-06T19:07:54.941Z,9.26
2017-05-06T19:10:21.815Z,14.94
2017-05-06T19:12:48.721Z,10.92
2017-05-06T19:15:15.569Z,10.40
2017-05-06T19:17:42.547Z,10.42
2017-05-06T19:20:09.432Z,12.62
2017-05-06T19:22:36.268Z,11.98
2017-05-06T19:25:03.083Z,14.12
2017-05-06T19:27:29.893Z,11.16
2017-05-06T19:29:56.846Z,12.92
2017-05-06T19:32:23.733Z,13.40
2017-05-06T19:34:51.063Z,11.00
2017-05-06T19:37:18.342Z,16.56
2017-05-06T19:39:45.573Z,16.02
2017-05-06T19:42:13.121Z,15.44
2017-05-06T19:44:40.484Z,15.70
2017-05-06T19:47:07.318Z,14.14
2017-05-06T19:49:34.572Z,15.76
2017-05-06T19:52:01.590Z,12.26
2017-05-06T19:54:28.465Z,12.88
2017-05-06T19:56:55.399Z,14.92
2017-05-06T19:59:22.366Z,14.76
2017-05-06T20:01:49.247Z,17.92
2017-05-06T20:04:16.095Z,17.70
2017-05-06T20:06:43.020Z,16.10
2017-05-06T20:09:09.872Z,14.56
2017-05-06T20:11:36.688Z,16.06
2017-05-06T20:14:03.576Z,19.72
2017-05-06T20:16:30.418Z,18.74
2017-05-06T20:18:57.262Z,15.50
2017-05-06T20:21:24.467Z,18.84
2017-05-06T20:23:51.507Z,19.36
2017-05-06T20:26:18.630Z,16.30
2017-05-06T20:28:45.864Z,13.40
2017-05-06T20:31:12.794Z,17.86
2017-05-06T20:33:39.705Z,19.26
2017-05-06T20:36:06.915Z,15.42
2017-05-06T20:38:33.892Z,15.62
2017-05-06T20:41:00.883Z,15.76
2017-05-06T20:43:27.985Z,15.20
2017-05-06T20:45:55.112Z,14.98
2017-05-06T20:48:22.158Z,13.66
2017-05-06T20:50:49.058Z,15.00
2017-05-06T20:53:16.022Z,15.76
2017-05-06T20:55:42.830Z,14.82
2017-05-06T20:58:09.673Z,21.28
2017-05-06T21:00:36.484Z,17.38
2017-05-06T21:03:03.332Z,54.36
2017-05-06T21:05:30.232Z,16.88
2017-05-06T21:07:57.231Z,18.54
2017-05-06T21:10:24.389Z,22.30
2017-05-06T21:12:51.314Z,20.18
2017-05-06T21:15:18.131Z,21.02
2017-05-06T21:17:44.966Z,24.26
2017-05-06T21:20:11.972Z,31.80
2017-05-06T21:22:38.900Z,31.78
2017-05-06T21:25:05.846Z,31.62
2017-05-06T21:27:32.818Z,31.54
2017-05-06T21:29:59.828Z,31.98
2017-05-06T21:32:26.785Z,35.50
2017-05-06T21:34:53.830Z,28.70
2017-05-06T21:37:20.745Z,35.00
2017-05-06T21:39:47.739Z,35.52
2017-05-06T21:42:14.768Z,34.64
2017-05-06T21:44:41.610Z,36.58
2017-05-06T21:47:08.507Z,31.62
2017-05-06T21:49:35.479Z,25.52
2017-05-06T21:52:02.547Z,27.20
2017-05-06T21:54:29.489Z,22.72
2017-05-06T21:56:56.325Z,20.88
2017-05-06T21:59:23.542Z,22.28
2017-05-06T22:01:50.524Z,27.46
2017-05-06T22:04:17.394Z,23.34
2017-05-06T22:06:44.419Z,29.60
2017-05-06T22:09:11.300Z,31.92
2017-05-06T22:11:38.118Z,23.48
2017-05-06T22:14:04.926Z,24.62
2017-05-06T22:16:31.769Z,25.62
2017-05-06T22:18:58.738Z,27.68
2017-05-06T22:21:25.598Z,28.22
2017-05-06T22:23:52.492Z,23.88
